Flight Track Log - Related Links

Times and Time Zones

All times are in EDT time to prevent confusion due to time zone crossing. See the RSP305 flight status page for this flight to view local times or setup timezone preferences in your user account.

Time Position Orientation Groundspeed Altitude Reporting Facility
EDT Latitude Longitude Course Direction KTS MPH feet Rate Location/Type
Mon 09:28:41 AM 40.7736 -111.9650 270° West 136 157 5,000  Level Salt Lake Center
Mon 09:29:24 AM 40.7586 -111.9983 239° Southwest 175 201 5,900 1,345 Climbing Salt Lake Center
Mon 09:29:39 AM 40.7558 -112.0156 258° West 181 208 6,300 1,403 Climbing Salt Lake Center
Mon 09:30:41 AM 40.7581 -112.0958 272° West 233 268 7,700 1,610 Climbing Salt Lake Center
Mon 09:31:42 AM 40.7861 -112.1747 295° West 239 275 9,600 1,721 Climbing Salt Lake Center
Mon 09:32:43 AM 40.8139 -112.2586 294° West 244 281 11,200 1,672 Climbing Salt Lake Center
Mon 09:33:44 AM 40.8419 -112.3425 294° West 247 284 13,000 2,016 Climbing Salt Lake Center
Mon 09:34:00 AM 40.8500 -112.5782 270° West  Level FlightAware Approximate
Mon 09:34:45 AM 40.8647 -112.4206 291° West 225 259 15,300  Level Salt Lake Center
Mon 09:35:47 AM 40.8669 -112.5061 272° West 239 275 16,700 1,171 Climbing Salt Lake Center
Mon 09:36:48 AM 40.8608 -112.6014 265° West 260 299 17,700 934 Climbing Salt Lake Center
Mon 09:37:49 AM 40.8300 -112.6975 247° West 286 329 18,600 934 Climbing Salt Lake Center
Mon 09:38:50 AM 40.7933 -112.7942 243° Southwest 295 339 19,600 976 Climbing Salt Lake Center
Mon 09:39:52 AM 40.7550 -112.8928 243° Southwest 303 349 20,600 1,073 Climbing Salt Lake Center
Mon 09:40:53 AM 40.7069 -113.0139 242° Southwest 309 356 21,800 1,082 Climbing Salt Lake Center
Mon 09:41:54 AM 40.6661 -113.1139 242° Southwest 309 356 22,800 976 Climbing Salt Lake Center
Mon 09:42:56 AM 40.6261 -113.2172 243° Southwest 314 361 23,800 976 Climbing Salt Lake Center
Mon 09:43:57 AM 40.5858 -113.3197 243° Southwest 316 364 24,800 984 Climbing Salt Lake Center
Mon 09:44:58 AM 40.5458 -113.4233 243° Southwest 316 364 25,800 976 Climbing Salt Lake Center
Mon 09:46:00 AM 40.5042 -113.5244 242° Southwest 316 364 26,800 976 Climbing Salt Lake Center
Mon 09:47:01 AM 40.4636 -113.6261 242° Southwest 316 364 27,800 976 Climbing Salt Lake Center
Mon 09:48:03 AM 40.4242 -113.7283 243° Southwest 316 364 28,800 1,073 Climbing Salt Lake Center
Mon 09:49:04 AM 40.3739 -113.8497 241° Southwest 316 364 30,000 1,073 Climbing Salt Lake Center
Mon 09:50:06 AM 40.3336 -113.9517 243° Southwest 315 362 31,000 976 Climbing Salt Lake Center
Mon 09:51:07 AM 40.2922 -114.0531 242° Southwest 316 364 32,000 984 Climbing Salt Lake Center
Mon 09:52:08 AM 40.2506 -114.1528 241° Southwest 315 362 33,000 976 Climbing Salt Lake Center
Mon 09:53:10 AM 40.2111 -114.2536 243° Southwest 315 362 34,000 927 Climbing Salt Lake Center
Mon 09:54:11 AM 40.1697 -114.3525 241° Southwest 313 360 34,900 829 Climbing Salt Lake Center
Mon 09:55:13 AM 40.1292 -114.4517 242° Southwest 313 360 35,700 537 Climbing Salt Lake Center
Mon 09:56:14 AM 40.0861 -114.5525 241° Southwest 314 361 36,000 146 Climbing Salt Lake Center
Mon 09:57:16 AM 40.0342 -114.6833 243° Southwest 337 388 36,000  Level Salt Lake Center
Mon 09:58:17 AM 39.9883 -114.7906 241° Southwest 340 391 36,000  Level Salt Lake Center
Mon 09:59:19 AM 39.9439 -114.8964 241° Southwest 343 395 36,000  Level Salt Lake Center
Mon 10:00:21 AM 39.8997 -115.0019 241° Southwest 343 395 36,000  Level Salt Lake Center
Mon 10:01:22 AM 39.8475 -115.1250 241° Southwest 345 397 36,000  Level Salt Lake Center
Mon 10:02:24 AM 39.8053 -115.2283 242° Southwest 343 395 36,000  Level Salt Lake Center
Mon 10:03:25 AM 39.7533 -115.3497 241° Southwest 343 395 36,000  Level Salt Lake Center
Mon 10:04:27 AM 39.7083 -115.4544 241° Southwest 344 396 36,000  Level Salt Lake Center
Mon 10:05:29 AM 39.6558 -115.5753 241° Southwest 343 395 36,000  Level Salt Lake Center
Mon 10:06:30 AM 39.6119 -115.6808 242° Southwest 344 396 36,000  Level Salt Lake Center
Mon 10:07:32 AM 39.5672 -115.7856 241° Southwest 345 397 36,000  Level Salt Lake Center
Mon 10:08:33 AM 39.5147 -115.9067 241° Southwest 344 396 36,000  Level Salt Lake Center
Mon 10:09:35 AM 39.4706 -116.0086 241° Southwest 344 396 36,000  Level Salt Lake Center
Mon 10:10:37 AM 39.4181 -116.1294 241° Southwest 344 396 36,000  Level Salt Lake Center
Mon 10:11:39 AM 39.3728 -116.2322 240° Southwest 343 395 36,000  Level Salt Lake Center
Mon 10:12:40 AM 39.3272 -116.3353 240° Southwest 343 395 36,000  Level Salt Lake Center
Mon 10:13:42 AM 39.2750 -116.4564 241° Southwest 344 396 36,000  Level Salt Lake Center
Mon 10:14:44 AM 39.2292 -116.5597 240° Southwest 344 396 36,000  Level Salt Lake Center
Mon 10:15:46 AM 39.1758 -116.6811 240° Southwest 345 397 36,000  Level Salt Lake Center
Mon 10:16:47 AM 39.1294 -116.7856 240° Southwest 346 398 36,000  Level Salt Lake Center
Mon 10:17:49 AM 39.0758 -116.9053 240° Southwest 346 398 36,000  Level Salt Lake Center
Mon 10:18:51 AM 39.0294 -117.0117 241° Southwest 346 398 36,000  Level Salt Lake Center
Mon 10:19:53 AM 38.9806 -117.1189 240° Southwest 346 398 36,000  Level Salt Lake Center
Mon 10:20:55 AM 38.9331 -117.2267 240° Southwest 346 398 36,000  Level Salt Lake Center
Mon 10:21:57 AM 38.8842 -117.3333 240° Southwest 346 398 36,000  Level Salt Lake Center
Mon 10:22:59 AM 38.8361 -117.4400 240° Southwest 347 399 36,000  Level Salt Lake Center
Mon 10:24:01 AM 38.7781 -117.5686 240° Southwest 347 399 36,000  Level Salt Lake Center
Mon 10:25:03 AM 38.7294 -117.6753 240° Southwest 347 399 36,000  Level Salt Lake Center
Mon 10:26:04 AM 38.6808 -117.7828 240° Southwest 348 400 36,000  Level Salt Lake Center
Mon 10:27:06 AM 38.6311 -117.8897 239° Southwest 348 400 36,000  Level Salt Lake Center
Mon 10:28:08 AM 38.5828 -117.9961 240° Southwest 348 400 36,000  Level Salt Lake Center
Mon 10:29:10 AM 38.5344 -118.1033 240° Southwest 348 400 36,000  Level Salt Lake Center
Mon 10:30:12 AM 38.4797 -118.2342 242° Southwest 349 402 36,000  Level Salt Lake Center
Mon 10:31:22 AM 38.4319 -118.3467 242° Southwest 349 402 36,000  Level Oakland Center
Mon 10:32:23 AM 38.3856 -118.4569 242° Southwest 350 403 36,000  Level Oakland Center
Mon 10:33:24 AM 38.3286 -118.5883 241° Southwest 351 404 36,000  Level Oakland Center
Mon 10:34:26 AM 38.2811 -118.6992 241° Southwest 355 409 36,000  Level Oakland Center
Mon 10:35:27 AM 38.2336 -118.8103 241° Southwest 356 410 36,000  Level Oakland Center
Mon 10:36:28 AM 38.1856 -118.9217 241° Southwest 356 410 36,000  Level Oakland Center
Mon 10:37:30 AM 38.1339 -119.0414 241° Southwest 357 411 36,000  Level Oakland Center
Mon 10:38:31 AM 38.0858 -119.1519 241° Southwest 357 411 36,000  Level Oakland Center
Mon 10:39:32 AM 38.0389 -119.2628 242° Southwest 357 411 36,000  Level Oakland Center
Mon 10:40:34 AM 37.9894 -119.3736 241° Southwest 359 413 36,000  Level Oakland Center
Mon 10:41:35 AM 37.9422 -119.4836 241° Southwest 359 413 36,000  Level Oakland Center
Mon 10:42:36 AM 37.9239 -119.6092 260° West 366 421 36,000  Level Oakland Center
Mon 10:43:38 AM 37.9172 -119.7350 266° West 363 418 36,000  Level Oakland Center
Mon 10:44:39 AM 37.9108 -119.8636 266° West 363 418 36,000  Level Oakland Center
Mon 10:45:40 AM 37.9033 -119.9908 266° West 363 418 36,000 -148 Level Oakland Center
Mon 10:46:41 AM 37.8961 -120.1192 266° West 363 418 35,700 -585 Descending Oakland Center
Mon 10:47:43 AM 37.8889 -120.2528 266° West 373 429 34,800 -1,024 Descending Oakland Center
Mon 10:48:44 AM 37.8794 -120.4178 266° West 387 445 33,600 -1,230 Descending Oakland Center
Mon 10:49:45 AM 37.8719 -120.5542 266° West 387 445 32,300 -1,366 Descending Oakland Center
Mon 10:50:47 AM 37.8636 -120.6911 266° West 387 445 30,800 -1,805 Descending Oakland Center
Mon 10:51:48 AM 37.8553 -120.8300 266° West 389 448 28,600 -3,049 Descending Oakland Center
Mon 10:52:49 AM 37.8469 -120.9697 266° West 394 453 24,600 -3,902 Descending Oakland Center
Mon 10:53:51 AM 37.8378 -121.1050 265° West 389 448 20,600 -3,787 Descending Oakland Center
Mon 10:54:51 AM 37.8167 -121.2333 258° West 415 478 16,900 -3,724 Descending Northern Cal TRACON
Mon 10:56:45 AM 37.7667 -121.4333 253° West 302 348 9,800 -3,069 Descending Northern Cal TRACON
Mon 10:57:45 AM 37.7500 -121.5333 258° West 274 315 8,000 -900 Descending Northern Cal TRACON
Mon 10:58:45 AM 37.7333 -121.6333 258° West 275 316 8,000 -470 Level Northern Cal TRACON
Mon 10:59:40 AM 37.7167 -121.7000 252° West 286 329 7,100 -783 Descending Northern Cal TRACON
Mon 11:00:40 AM 37.6833 -121.8000 247° West 269 310 6,500 -1,100 Descending Northern Cal TRACON
Mon 11:01:40 AM 37.6667 -121.8833 256° West 247 284 4,900 -1,650 Descending Northern Cal TRACON
Mon 11:02:40 AM 37.6667 -121.9667 270° West 223 257 3,200 -1,400 Descending Northern Cal TRACON
Mon 11:03:40 AM 37.6667 -122.0333 270° West 207 238 2,100 -632 Descending Northern Cal TRACON
Mon 11:04:34 AM 37.6833 -122.1000 288° West 187 215 2,000 -424 Descending Northern Cal TRACON
Mon 11:05:05 AM 37.6958 -122.1158 315° West 196 226 1,500 -783 Descending Oakland Center
Mon 11:06:06 AM 37.7111 -122.1622 293° West 167 192 800 -639 Descending Oakland Center
Mon 11:07:07 AM 37.7228 -122.1994 292° West 137 158 200 -590 Descending Oakland Center
Mon 11:09:00 AM 37.7167 -122.2167 270° West  Level FlightAware Approximate
Mon 11:16:00 AM 37.7228 -122.2215 270° West  Level Estimated

Login

Don't have an account? Register now (free) for customized features, flight alerts, and more!